Time;durP1;ratioP1;P1;durP2;ratioP2;P2;SDS_P1;SDS_P2;PMS_P1;PMS_P2;Temp;Humidity;BMP_temperature;BMP_pressure;BME280_temperature;BME280_humidity;BME280_pressure;Samples;Min_cycle;Max_cycle;Signal;HPM_P1;HPM_P2
2022/05/22 00:01:26;;;;;;;;;;;;;;;13.54;58.99;96691.88;5054990;28;20298;-74
2022/05/22 00:03:52;;;;;;;;;;;;;;;13.53;59.58;96694.72;5055087;28;19978;-74
2022/05/22 00:06:18;;;;;;;;;;;;;;;13.49;59.85;96690.94;5054881;28;19977;-74
2022/05/22 00:08:44;;;;;;;;;;;;;;;13.45;59.72;96692.44;5054864;28;20033;-73
2022/05/22 00:11:10;;;;;;;;;;;;;;;13.40;59.86;96686.03;5054727;28;19985;-73
2022/05/22 00:13:36;;;;;;;;;;;;;;;13.36;60.34;96679.59;5055117;28;20348;-73
2022/05/22 00:16:46;;;;;;;;;;;;;;;13.32;60.36;96688.22;5054671;28;19996;-74
2022/05/22 00:18:51;;;;;;;;;;;;;;;13.28;60.88;96695.72;5043894;28;19976;-75
2022/05/22 00:21:17;;;;;;;;;;;;;;;13.26;60.63;96699.63;5054475;28;19958;-74
2022/05/22 00:23:44;;;;;;;;;;;;;;;13.24;60.96;96699.03;5054494;28;19963;-74
2022/05/22 00:26:10;;;;;;;;;;;;;;;13.18;61.17;96690.22;5054652;28;20352;-74
2022/05/22 00:28:35;;;;;;;;;;;;;;;13.12;60.97;96686.69;5053714;28;19982;-74
2022/05/22 00:31:01;;;;;;;;;;;;;;;13.11;61.67;96692.16;5054923;28;20395;-74
2022/05/22 00:33:28;;;;;;;;;;;;;;;13.09;61.07;96686.34;5054458;28;19948;-74
2022/05/22 00:35:54;;;;;;;;;;;;;;;13.07;61.00;96685.75;5054504;28;19959;-74
2022/05/22 00:38:20;;;;;;;;;;;;;;;13.05;61.11;96680.72;5054189;28;19950;-74
2022/05/22 00:40:46;;;;;;;;;;;;;;;13.05;61.38;96672.00;5054069;28;20417;-74
2022/05/22 00:43:29;;;;;;;;;;;;;;;13.04;60.77;96670.41;5054598;28;20324;-74
2022/05/22 00:45:55;;;;;;;;;;;;;;;13.05;61.94;96675.44;5054159;28;19966;-75
2022/05/22 00:48:21;;;;;;;;;;;;;;;13.05;61.43;96672.81;5054254;28;20007;-73
2022/05/22 00:50:48;;;;;;;;;;;;;;;13.06;60.89;96671.78;5053205;28;19958;-74
2022/05/22 00:53:14;;;;;;;;;;;;;;;13.05;60.82;96666.75;5054762;28;19960;-74
2022/05/22 00:55:40;;;;;;;;;;;;;;;13.02;61.12;96660.13;5053930;28;19966;-73
2022/05/22 00:58:15;;;;;;;;;;;;;;;13.00;60.86;96673.50;5054112;28;19977;-73
2022/05/22 01:00:41;;;;;;;;;;;;;;;12.97;61.81;96670.50;5054065;28;19958;-74
2022/05/22 01:03:28;;;;;;;;;;;;;;;12.93;61.20;96670.16;5054007;28;20001;-73
2022/05/22 01:05:55;;;;;;;;;;;;;;;12.88;61.62;96670.03;5053814;28;19952;-73
2022/05/22 01:08:21;;;;;;;;;;;;;;;12.85;61.82;96665.25;5053722;28;19969;-73
2022/05/22 01:10:50;;;;;;;;;;;;;;;12.83;62.76;96666.47;5053895;28;19986;-74
2022/05/22 01:13:18;;;;;;;;;;;;;;;12.78;62.31;96665.31;5053714;28;19959;-74
2022/05/22 01:15:44;;;;;;;;;;;;;;;12.75;61.95;96662.38;5053913;28;20322;-74
2022/05/22 01:18:10;;;;;;;;;;;;;;;12.71;62.16;96664.63;5053605;28;19953;-73
2022/05/22 01:20:37;;;;;;;;;;;;;;;12.68;62.32;96670.38;5053915;28;19955;-74
2022/05/22 01:23:03;;;;;;;;;;;;;;;12.65;62.44;96668.16;5053623;28;20388;-74
2022/05/22 01:25:29;;;;;;;;;;;;;;;12.60;62.92;96668.06;5053600;28;19954;-74
2022/05/22 01:27:55;;;;;;;;;;;;;;;12.55;62.49;96666.06;5053678;28;19972;-74
2022/05/22 01:30:24;;;;;;;;;;;;;;;12.54;62.81;96661.06;5053491;28;20037;-74
2022/05/22 01:32:50;;;;;;;;;;;;;;;12.51;62.54;96666.75;5052751;28;19948;-74
2022/05/22 01:35:18;;;;;;;;;;;;;;;12.46;63.07;96675.31;5054052;28;20402;-74
2022/05/22 01:37:45;;;;;;;;;;;;;;;12.43;62.93;96675.78;5053549;28;19948;-74
2022/05/22 01:40:12;;;;;;;;;;;;;;;12.39;62.59;96672.78;5053298;28;19952;-74
2022/05/22 01:42:38;;;;;;;;;;;;;;;12.37;63.14;96677.47;5053594;28;19958;-74
2022/05/22 01:45:05;;;;;;;;;;;;;;;12.35;63.42;96676.09;5053220;28;19952;-74
2022/05/22 01:47:34;;;;;;;;;;;;;;;12.33;63.39;96673.69;5053246;28;19985;-74
2022/05/22 01:50:01;;;;;;;;;;;;;;;12.30;63.61;96679.38;5054139;28;19956;-73
2022/05/22 01:52:27;;;;;;;;;;;;;;;12.27;63.56;96673.78;5053483;28;19955;-73
2022/05/22 01:54:53;;;;;;;;;;;;;;;12.23;63.95;96669.97;5053094;28;20391;-74
2022/05/22 01:57:19;;;;;;;;;;;;;;;12.20;64.02;96676.50;5035625;28;19991;-74
2022/05/22 01:59:44;;;;;;;;;;;;;;;12.18;63.66;96666.19;5053342;28;20401;-74
2022/05/22 02:02:10;;;;;;;;;;;;;;;12.15;63.54;96668.44;5053011;28;19957;-74
2022/05/22 02:04:36;;;;;;;;;;;;;;;12.12;64.17;96667.06;5053572;28;20030;-73
2022/05/22 02:09:47;;;;;;;;;;;;;;;12.07;64.51;96656.41;5053234;28;19959;-73
2022/05/22 02:12:13;;;;;;;;;;;;;;;12.04;64.28;96659.50;5052894;28;19979;-74
2022/05/22 02:14:39;;;;;;;;;;;;;;;12.04;64.35;96662.13;5053119;28;20312;-74
2022/05/22 02:17:05;;;;;;;;;;;;;;;12.02;64.83;96660.75;5053191;28;19970;-74
2022/05/22 02:19:34;;;;;;;;;;;;;;;11.97;64.88;96654.31;5053005;28;19965;-74
2022/05/22 02:21:59;;;;;;;;;;;;;;;11.96;65.32;96639.56;5053085;28;20049;-74
2022/05/22 02:24:25;;;;;;;;;;;;;;;11.93;65.62;96632.13;5053028;28;20443;-74
2022/05/22 02:26:51;;;;;;;;;;;;;;;11.91;65.26;96617.63;5052782;28;19974;-74
2022/05/22 02:29:17;;;;;;;;;;;;;;;11.87;64.97;96609.34;5053033;28;19955;-74
2022/05/22 02:31:43;;;;;;;;;;;;;;;11.85;65.16;96626.34;5051636;28;20380;-73
2022/05/22 02:34:09;;;;;;;;;;;;;;;11.84;65.41;96612.38;5053029;28;19967;-74
2022/05/22 02:36:35;;;;;;;;;;;;;;;11.83;65.76;96610.81;5052936;28;19960;-73
2022/05/22 02:39:01;;;;;;;;;;;;;;;11.81;66.17;96607.59;5053066;28;20015;-74
2022/05/22 02:41:27;;;;;;;;;;;;;;;11.79;66.36;96602.53;5052909;28;19996;-74
2022/05/22 02:43:53;;;;;;;;;;;;;;;11.77;66.14;96604.59;5054397;28;19967;-74
2022/05/22 02:46:20;;;;;;;;;;;;;;;11.75;66.77;96600.59;5056571;28;19951;-74
2022/05/22 02:48:46;;;;;;;;;;;;;;;11.73;65.74;96600.81;5056432;28;19986;-74
2022/05/22 02:51:14;;;;;;;;;;;;;;;11.72;66.03;96607.09;5056774;28;19953;-74
2022/05/22 02:53:40;;;;;;;;;;;;;;;11.70;66.02;96606.50;5056071;28;19948;-74
2022/05/22 02:56:10;;;;;;;;;;;;;;;11.68;66.43;96613.81;5056432;28;19962;-74
2022/05/22 02:58:36;;;;;;;;;;;;;;;11.67;65.79;96599.06;5056404;28;19966;-74
2022/05/22 03:01:03;;;;;;;;;;;;;;;11.65;66.31;96602.94;5056175;28;19957;-74
2022/05/22 03:03:29;;;;;;;;;;;;;;;11.62;66.09;96596.31;5056050;28;19957;-74
2022/05/22 03:08:40;;;;;;;;;;;;;;;11.55;66.49;96599.00;5056061;28;19974;-74
2022/05/22 03:11:06;;;;;;;;;;;;;;;11.51;66.29;96586.53;5055804;28;19985;-74
2022/05/22 03:13:32;;;;;;;;;;;;;;;11.48;66.62;96586.97;5056174;28;19958;-74
2022/05/22 03:15:59;;;;;;;;;;;;;;;11.46;66.05;96576.69;5056022;28;19984;-74
2022/05/22 03:18:24;;;;;;;;;;;;;;;11.45;66.61;96582.16;5055897;28;19957;-73
2022/05/22 03:20:50;;;;;;;;;;;;;;;11.43;66.88;96584.22;5055809;28;19958;-74
2022/05/22 03:23:16;;;;;;;;;;;;;;;11.40;66.98;96592.50;5056119;28;20020;-74
2022/05/22 03:25:44;;;;;;;;;;;;;;;11.37;66.51;96584.06;5055588;28;19947;-73
2022/05/22 03:28:09;;;;;;;;;;;;;;;11.35;67.72;96593.16;5037892;28;19974;-73
2022/05/22 03:30:35;;;;;;;;;;;;;;;11.30;66.88;96577.28;5055897;28;20008;-73
2022/05/22 03:33:01;;;;;;;;;;;;;;;11.29;66.94;96583.53;5054479;28;19955;-73
2022/05/22 03:35:27;;;;;;;;;;;;;;;11.25;66.72;96574.50;5055470;28;20340;-73
2022/05/22 03:37:53;;;;;;;;;;;;;;;11.25;66.89;96585.00;5055538;28;20014;-73
2022/05/22 03:40:19;;;;;;;;;;;;;;;11.23;66.71;96587.84;5055482;28;19987;-74
2022/05/22 03:42:45;;;;;;;;;;;;;;;11.21;66.66;96578.56;5055578;28;20031;-74
2022/05/22 03:45:11;;;;;;;;;;;;;;;11.20;66.42;96575.16;5055456;28;20054;-73
2022/05/22 03:47:38;;;;;;;;;;;;;;;11.20;66.28;96580.41;5055419;28;20447;-74
2022/05/22 03:50:09;;;;;;;;;;;;;;;11.21;67.08;96591.72;5037511;28;19978;-74
2022/05/22 03:52:35;;;;;;;;;;;;;;;11.20;66.89;96577.78;5055610;28;19967;-74
2022/05/22 03:55:02;;;;;;;;;;;;;;;11.21;66.76;96568.88;5037233;28;19951;-74
2022/05/22 03:57:28;;;;;;;;;;;;;;;11.18;66.50;96566.69;5054939;28;19954;-74
2022/05/22 03:59:54;;;;;;;;;;;;;;;11.16;66.70;96556.41;5055359;28;20364;-74
2022/05/22 04:02:20;;;;;;;;;;;;;;;11.16;66.68;96555.63;5055139;28;19953;-74
2022/05/22 04:04:46;;;;;;;;;;;;;;;11.15;67.13;96560.06;5055156;28;19962;-74
2022/05/22 04:07:13;;;;;;;;;;;;;;;11.16;66.72;96556.41;5054831;28;20005;-74
2022/05/22 04:09:39;;;;;;;;;;;;;;;11.16;66.98;96542.50;5054955;28;19972;-74
2022/05/22 04:12:09;;;;;;;;;;;;;;;11.16;66.74;96540.66;5054630;28;19985;-74
2022/05/22 04:14:35;;;;;;;;;;;;;;;11.16;66.92;96553.78;5054968;28;19956;-74
2022/05/22 04:17:01;;;;;;;;;;;;;;;11.17;67.10;96563.28;5054774;28;19964;-74
2022/05/22 04:19:27;;;;;;;;;;;;;;;11.21;67.58;96570.72;5054674;28;19976;-74
2022/05/22 04:21:53;;;;;;;;;;;;;;;11.25;67.10;96564.00;5055032;28;19966;-74
2022/05/22 04:27:04;;;;;;;;;;;;;;;11.35;67.49;96557.22;5054833;28;20349;-74
2022/05/22 04:29:30;;;;;;;;;;;;;;;11.38;67.68;96550.72;5054535;28;19970;-74
2022/05/22 04:31:56;;;;;;;;;;;;;;;11.45;67.40;96556.69;5054609;28;19972;-73
2022/05/22 04:34:22;;;;;;;;;;;;;;;11.56;67.27;96549.91;5054402;28;19997;-74
2022/05/22 04:36:48;;;;;;;;;;;;;;;11.67;67.30;96543.09;5054560;28;20414;-73
2022/05/22 04:39:14;;;;;;;;;;;;;;;11.79;66.51;96530.81;5054449;28;19955;-74
2022/05/22 04:41:40;;;;;;;;;;;;;;;11.94;66.69;96531.22;5054164;28;20421;-74
2022/05/22 04:44:06;;;;;;;;;;;;;;;12.12;66.51;96524.31;5054302;28;19966;-74
2022/05/22 04:46:32;;;;;;;;;;;;;;;12.28;65.40;96509.69;5054136;28;19965;-74
2022/05/22 04:48:58;;;;;;;;;;;;;;;12.44;65.34;96509.03;5036616;28;20005;-74
2022/05/22 04:51:24;;;;;;;;;;;;;;;12.64;65.43;96503.44;5054270;28;19963;-74
2022/05/22 04:53:50;;;;;;;;;;;;;;;12.80;64.19;96489.56;5054037;28;19994;-74
2022/05/22 04:56:16;;;;;;;;;;;;;;;12.88;64.30;96485.00;5053983;28;20438;-74
2022/05/22 04:58:42;;;;;;;;;;;;;;;13.04;64.06;96488.75;5053975;28;19960;-74
2022/05/22 05:01:09;;;;;;;;;;;;;;;13.29;63.80;96493.75;5054052;28;19956;-74
2022/05/22 05:03:35;;;;;;;;;;;;;;;13.54;62.76;96475.81;5036070;28;20413;-74
2022/05/22 05:06:00;;;;;;;;;;;;;;;13.76;62.32;96473.28;5054108;28;20007;-74
2022/05/22 05:08:27;;;;;;;;;;;;;;;14.00;62.12;96475.78;5052839;28;20411;-74
2022/05/22 05:10:53;;;;;;;;;;;;;;;14.28;62.12;96474.13;5052750;28;19974;-74
2022/05/22 05:13:20;;;;;;;;;;;;;;;14.55;60.97;96463.69;5053830;28;19955;-74
2022/05/22 05:15:46;;;;;;;;;;;;;;;14.80;59.81;96461.47;5053552;28;19985;-74
2022/05/22 05:18:13;;;;;;;;;;;;;;;15.08;59.74;96464.97;5053816;28;20328;-74
2022/05/22 05:20:39;;;;;;;;;;;;;;;15.40;58.78;96453.69;5053972;28;19956;-74
2022/05/22 05:23:05;;;;;;;;;;;;;;;15.70;58.18;96444.47;5053908;28;19959;-74
2022/05/22 05:25:31;;;;;;;;;;;;;;;15.98;57.45;96432.84;5053846;28;20398;-74
2022/05/22 05:27:57;;;;;;;;;;;;;;;16.23;57.11;96419.00;5053432;28;19979;-74
2022/05/22 05:30:23;;;;;;;;;;;;;;;16.41;55.57;96415.16;5053525;28;20415;-74
2022/05/22 05:32:53;;;;;;;;;;;;;;;16.52;55.62;96416.03;5053673;28;19990;-75
2022/05/22 05:35:19;;;;;;;;;;;;;;;16.66;55.44;96421.66;5054035;28;19961;-75
2022/05/22 05:37:46;;;;;;;;;;;;;;;16.62;55.22;96426.66;5053365;28;19959;-75
2022/05/22 05:40:12;;;;;;;;;;;;;;;16.52;54.74;96419.47;5053421;28;19957;-75
2022/05/22 05:42:40;;;;;;;;;;;;;;;16.42;55.01;96416.75;5053524;28;19996;-75
2022/05/22 05:45:07;;;;;;;;;;;;;;;16.33;55.61;96424.38;5053685;28;20317;-74
2022/05/22 05:47:33;;;;;;;;;;;;;;;16.48;55.96;96428.16;5053241;28;19979;-75
2022/05/22 05:49:59;;;;;;;;;;;;;;;16.50;55.85;96420.78;5053232;28;20394;-74
2022/05/22 05:52:25;;;;;;;;;;;;;;;16.67;56.08;96412.66;5053222;28;20432;-74
2022/05/22 05:54:50;;;;;;;;;;;;;;;16.99;55.59;96404.63;5053385;28;19992;-74
2022/05/22 05:57:16;;;;;;;;;;;;;;;17.16;54.80;96394.63;5053157;28;20393;-75
2022/05/22 05:59:42;;;;;;;;;;;;;;;17.35;54.75;96396.78;5053367;28;20014;-74
2022/05/22 06:02:12;;;;;;;;;;;;;;;17.49;54.38;96391.75;5053423;28;19955;-74
2022/05/22 06:04:39;;;;;;;;;;;;;;;17.49;53.91;96383.81;5053284;28;19960;-74
2022/05/22 06:07:05;;;;;;;;;;;;;;;17.32;53.93;96390.13;5053279;28;19962;-74
2022/05/22 06:09:31;;;;;;;;;;;;;;;17.15;54.52;96394.88;5052907;28;19970;-74
2022/05/22 06:11:57;;;;;;;;;;;;;;;17.05;54.81;96387.69;5053128;28;19981;-74
2022/05/22 06:14:23;;;;;;;;;;;;;;;16.96;55.02;96394.53;5053201;28;19995;-74
2022/05/22 06:16:50;;;;;;;;;;;;;;;16.74;55.77;96406.09;5053242;28;19954;-74
2022/05/22 06:19:53;;;;;;;;;;;;;;;16.63;56.60;96415.00;5054660;28;19955;-74
2022/05/22 06:22:02;;;;;;;;;;;;;;;16.72;56.36;96408.19;5057146;28;19958;-74
2022/05/22 06:24:28;;;;;;;;;;;;;;;16.88;56.03;96410.94;5057075;28;19977;-74
2022/05/22 06:26:54;;;;;;;;;;;;;;;16.86;55.85;96405.88;5057032;28;19972;-74
2022/05/22 06:29:19;;;;;;;;;;;;;;;17.05;54.97;96403.59;5056528;28;19972;-74
2022/05/22 06:31:45;;;;;;;;;;;;;;;17.12;54.81;96388.25;5055472;28;19963;-74
2022/05/22 06:34:11;;;;;;;;;;;;;;;17.34;55.30;96387.22;5056792;28;20421;-69
2022/05/22 06:36:37;;;;;;;;;;;;;;;17.28;53.83;96378.47;5056552;28;19966;-70
2022/05/22 06:41:48;;;;;;;;;;;;;;;17.99;53.86;96369.00;5056557;28;19966;-69
2022/05/22 06:44:13;;;;;;;;;;;;;;;18.40;52.62;96364.41;5056531;28;20092;-70
2022/05/22 06:46:39;;;;;;;;;;;;;;;18.79;52.54;96361.13;5056633;28;19954;-69
2022/05/22 06:49:05;;;;;;;;;;;;;;;18.95;50.89;96345.91;5056269;28;19965;-70
2022/05/22 06:51:56;;;;;;;;;;;;;;;18.93;52.10;96352.56;5016953;28;19976;-73
2022/05/22 06:54:22;;;;;;;;;;;;;;;18.86;49.86;96337.72;5039126;28;20332;-73
2022/05/22 06:56:48;;;;;;;;;;;;;;;18.77;50.88;96351.78;5056438;28;19967;-73
2022/05/22 06:59:14;;;;;;;;;;;;;;;18.63;50.45;96351.59;5056356;28;19992;-73
2022/05/22 07:01:40;;;;;;;;;;;;;;;18.58;51.45;96367.53;5056180;28;19950;-73
2022/05/22 07:04:06;;;;;;;;;;;;;;;18.62;51.56;96374.69;5056290;28;19962;-73
2022/05/22 07:06:32;;;;;;;;;;;;;;;18.67;51.98;96374.69;5056125;28;20065;-72
2022/05/22 07:08:58;;;;;;;;;;;;;;;18.82;52.42;96387.16;5056375;28;19978;-73
2022/05/22 07:11:39;;;;;;;;;;;;;;;19.01;50.99;96365.28;5055836;28;20002;-73
2022/05/22 07:14:05;;;;;;;;;;;;;;;19.08;50.22;96352.47;5056086;28;20029;-73
2022/05/22 07:16:31;;;;;;;;;;;;;;;19.31;51.66;96382.13;5055940;28;19968;-73
2022/05/22 07:18:57;;;;;;;;;;;;;;;19.58;51.38;96377.16;5055502;28;19977;-73
2022/05/22 07:21:24;;;;;;;;;;;;;;;19.72;50.84;96380.03;5055769;28;19957;-74
2022/05/22 07:23:50;;;;;;;;;;;;;;;19.89;50.44;96376.97;5055820;28;19965;-73
2022/05/22 07:26:19;;;;;;;;;;;;;;;20.04;48.25;96358.19;5055863;28;19956;-74
2022/05/22 07:28:45;;;;;;;;;;;;;;;19.80;48.39;96354.66;5055589;28;20361;-73
2022/05/22 07:31:19;;;;;;;;;;;;;;;19.68;49.39;96370.97;5054709;28;19969;-73
2022/05/22 07:33:45;;;;;;;;;;;;;;;19.58;49.69;96361.19;5055808;28;20411;-73
2022/05/22 07:36:11;;;;;;;;;;;;;;;19.59;50.02;96368.13;5055669;28;20053;-72
2022/05/22 07:38:37;;;;;;;;;;;;;;;19.74;50.61;96372.56;5055495;28;19953;-72
2022/05/22 07:41:02;;;;;;;;;;;;;;;19.88;49.70;96367.38;5055541;28;19985;-73
2022/05/22 07:43:28;;;;;;;;;;;;;;;19.95;48.42;96353.75;5055411;28;19959;-73
2022/05/22 07:45:54;;;;;;;;;;;;;;;20.11;49.81;96378.38;5055280;28;19959;-72
2022/05/22 07:48:20;;;;;;;;;;;;;;;20.34;50.14;96374.16;5055477;28;20326;-73
2022/05/22 07:50:46;;;;;;;;;;;;;;;20.62;51.03;96383.19;5055528;28;19965;-72
2022/05/22 07:53:12;;;;;;;;;;;;;;;20.76;48.41;96360.13;5055269;28;19951;-73
2022/05/22 07:55:42;;;;;;;;;;;;;;;20.85;48.54;96369.09;5055284;28;20474;-72
2022/05/22 07:58:07;;;;;;;;;;;;;;;20.89;47.46;96358.63;5055127;28;19969;-72
2022/05/22 08:00:33;;;;;;;;;;;;;;;20.63;47.00;96352.81;5055063;28;20043;-73
2022/05/22 08:03:09;;;;;;;;;;;;;;;20.59;47.91;96363.25;5054206;28;19963;-73
2022/05/22 08:05:35;;;;;;;;;;;;;;;20.54;48.01;96360.63;5055259;28;20350;-73
2022/05/22 08:08:01;;;;;;;;;;;;;;;20.34;47.74;96358.16;5053766;28;19979;-73
2022/05/22 08:10:26;;;;;;;;;;;;;;;20.11;48.15;96357.06;5054786;28;19970;-72
2022/05/22 08:12:52;;;;;;;;;;;;;;;20.14;48.12;96356.50;5054907;28;19958;-73
2022/05/22 08:15:20;;;;;;;;;;;;;;;20.17;48.30;96356.72;5036938;28;19997;-72
2022/05/22 08:17:46;;;;;;;;;;;;;;;20.30;48.60;96349.16;5054325;28;19953;-72
2022/05/22 08:20:17;;;;;;;;;;;;;;;20.54;47.77;96339.31;5054941;28;19956;-73
2022/05/22 08:22:44;;;;;;;;;;;;;;;20.70;47.35;96337.28;5054785;28;19945;-73
2022/05/22 08:25:10;;;;;;;;;;;;;;;20.67;45.79;96329.88;5054619;28;19958;-73
2022/05/22 08:27:36;;;;;;;;;;;;;;;20.55;46.40;96335.56;5054732;28;19978;-73
2022/05/22 08:30:03;;;;;;;;;;;;;;;20.41;47.16;96346.13;5054326;28;19980;-73
2022/05/22 08:32:29;;;;;;;;;;;;;;;20.29;47.05;96340.38;5054517;28;19953;-72
2022/05/22 08:34:55;;;;;;;;;;;;;;;20.34;46.33;96339.53;5054263;28;19960;-72
2022/05/22 08:37:22;;;;;;;;;;;;;;;20.34;47.11;96336.88;5036478;28;19952;-73
2022/05/22 08:39:48;;;;;;;;;;;;;;;20.33;46.72;96337.97;5054356;28;19960;-71
2022/05/22 08:42:24;;;;;;;;;;;;;;;20.33;47.70;96337.97;5053833;28;19956;-72
2022/05/22 08:44:54;;;;;;;;;;;;;;;20.52;48.25;96333.47;5054208;28;19961;-72
2022/05/22 08:47:22;;;;;;;;;;;;;;;20.67;46.99;96327.19;5054242;28;19950;-72
2022/05/22 08:49:55;;;;;;;;;;;;;;;20.84;46.48;96324.84;5053907;28;19980;-72
2022/05/22 08:52:40;;;;;;;;;;;;;;;21.07;47.14;96315.19;5054428;28;19956;-71
2022/05/22 08:55:12;;;;;;;;;;;;;;;21.34;46.62;96320.97;5045403;28;19961;-72
2022/05/22 09:00:28;;;;;;;;;;;;;;;21.44;43.88;96299.47;5054000;28;19954;-72
2022/05/22 09:03:07;;;;;;;;;;;;;;;21.42;45.53;96315.81;5054155;28;19961;-72
2022/05/22 09:05:34;;;;;;;;;;;;;;;21.54;45.68;96318.00;5040577;28;19968;-72
2022/05/22 09:08:17;;;;;;;;;;;;;;;21.61;45.50;96306.97;5053956;28;19971;-72
2022/05/22 09:11:04;;;;;;;;;;;;;;;21.76;45.04;96293.38;5053708;28;20298;-73
2022/05/22 09:13:47;;;;;;;;;;;;;;;21.85;44.18;96293.47;5053977;28;19956;-73
2022/05/22 09:16:21;;;;;;;;;;;;;;;21.73;44.12;96306.50;5053605;28;19948;-72
2022/05/22 09:18:55;;;;;;;;;;;;;;;21.65;44.48;96314.09;5053824;28;19958;-73
2022/05/22 09:21:30;;;;;;;;;;;;;;;21.61;43.99;96310.44;5053811;28;19951;-73
2022/05/22 09:24:00;;;;;;;;;;;;;;;21.58;42.43;96303.00;5053826;28;19952;-72
2022/05/22 09:26:38;;;;;;;;;;;;;;;21.53;44.51;96320.97;5053293;28;19943;-72
2022/05/22 09:29:13;;;;;;;;;;;;;;;21.60;43.14;96319.50;5053852;28;19972;-73
2022/05/22 09:31:53;;;;;;;;;;;;;;;21.54;42.16;96302.00;5053306;28;19956;-73
2022/05/22 09:34:25;;;;;;;;;;;;;;;21.47;44.87;96317.59;5053541;28;19959;-72
2022/05/22 09:37:00;;;;;;;;;;;;;;;21.45;42.94;96299.19;5053602;28;19954;-73
2022/05/22 09:39:46;;;;;;;;;;;;;;;21.54;44.46;96303.88;5053584;28;19953;-72
2022/05/22 09:42:27;;;;;;;;;;;;;;;21.49;44.33;96297.53;5053267;28;19953;-72
2022/05/22 09:45:11;;;;;;;;;;;;;;;21.43;43.07;96295.25;5050192;28;19967;-72
2022/05/22 09:47:37;;;;;;;;;;;;;;;21.45;42.77;96293.06;5043844;28;19967;-73
2022/05/22 09:50:08;;;;;;;;;;;;;;;21.60;44.01;96292.03;5051933;28;19969;-72
2022/05/22 09:52:34;;;;;;;;;;;;;;;21.84;43.83;96290.03;5053048;28;20406;-73
2022/05/22 09:54:59;;;;;;;;;;;;;;;21.87;41.65;96272.63;5054374;28;20014;-73
2022/05/22 09:57:34;;;;;;;;;;;;;;;22.05;43.35;96287.00;5056665;28;20039;-73
2022/05/22 10:00:18;;;;;;;;;;;;;;;22.13;41.67;96272.94;5055912;28;19981;-73
2022/05/22 10:02:50;;;;;;;;;;;;;;;22.39;41.57;96280.50;5057453;28;19974;-73
2022/05/22 10:05:24;;;;;;;;;;;;;;;22.67;40.43;96262.53;5057231;28;19985;-73
2022/05/22 10:07:53;;;;;;;;;;;;;;;22.82;40.47;96264.88;5057170;28;19949;-73
2022/05/22 10:10:22;;;;;;;;;;;;;;;23.10;40.72;96265.63;5056030;28;20468;-73
2022/05/22 10:12:54;;;;;;;;;;;;;;;23.27;39.69;96258.84;5055383;28;19964;-72
2022/05/22 10:15:44;;;;;;;;;;;;;;;23.33;39.52;96265.66;5057032;28;19957;-73
2022/05/22 10:18:09;;;;;;;;;;;;;;;23.47;39.61;96262.91;5026118;28;19968;-73
2022/05/22 10:20:54;;;;;;;;;;;;;;;23.56;37.38;96254.91;5056225;28;20372;-73
2022/05/22 10:23:20;;;;;;;;;;;;;;;23.42;38.54;96250.44;5045367;28;19954;-73
2022/05/22 10:25:46;;;;;;;;;;;;;;;23.27;38.71;96258.84;5055704;28;20006;-74
2022/05/22 10:28:11;;;;;;;;;;;;;;;23.29;38.26;96249.41;5055680;28;19949;-73
2022/05/22 10:30:37;;;;;;;;;;;;;;;23.35;37.94;96247.41;5055093;28;19966;-73
2022/05/22 10:33:10;;;;;;;;;;;;;;;23.45;39.17;96247.13;5057007;28;19995;-74
2022/05/22 10:35:38;;;;;;;;;;;;;;;23.66;37.51;96241.28;5056809;28;19971;-73
2022/05/22 10:38:11;;;;;;;;;;;;;;;23.67;36.29;96234.84;5056452;28;19960;-73
2022/05/22 10:43:31;;;;;;;;;;;;;;;23.88;36.95;96235.13;5057030;28;20418;-73
2022/05/22 10:45:57;;;;;;;;;;;;;;;24.01;37.79;96236.91;5056443;28;19977;-73
2022/05/22 10:48:24;;;;;;;;;;;;;;;24.19;37.84;96239.63;5056246;28;20415;-72
2022/05/22 10:50:50;;;;;;;;;;;;;;;24.20;36.29;96227.84;5054998;28;20326;-72
2022/05/22 10:53:42;;;;;;;;;;;;;;;24.04;37.98;96219.41;5055871;28;19954;-73
2022/05/22 10:56:14;;;;;;;;;;;;;;;24.11;36.78;96214.41;5052263;28;19955;-72
2022/05/22 10:58:48;;;;;;;;;;;;;;;24.28;34.76;96200.28;5056141;28;19962;-72
2022/05/22 11:01:19;;;;;;;;;;;;;;;24.47;36.60;96221.44;5056004;28;19971;-73
2022/05/22 11:03:45;;;;;;;;;;;;;;;24.68;37.17;96205.56;5055048;28;20445;-71
2022/05/22 11:06:16;;;;;;;;;;;;;;;24.83;37.33;96212.34;5056152;28;19949;-72
2022/05/22 11:08:46;;;;;;;;;;;;;;;24.84;36.30;96205.88;5056113;28;19968;-72
2022/05/22 11:11:18;;;;;;;;;;;;;;;24.95;37.34;96206.34;5056104;28;20417;-71
2022/05/22 11:13:45;;;;;;;;;;;;;;;25.04;37.27;96202.56;5055159;28;19970;-71
2022/05/22 11:16:12;;;;;;;;;;;;;;;25.22;35.69;96189.13;5055274;28;20330;-72
2022/05/22 11:18:37;;;;;;;;;;;;;;;25.35;34.39;96188.19;5055951;28;19978;-71
2022/05/22 11:21:08;;;;;;;;;;;;;;;25.40;35.51;96184.53;5055966;28;20385;-72
2022/05/22 11:23:46;;;;;;;;;;;;;;;25.50;36.09;96170.78;5054142;28;19959;-71
2022/05/22 11:26:25;;;;;;;;;;;;;;;25.67;34.72;96172.59;5055376;28;19956;-71
2022/05/22 11:28:57;;;;;;;;;;;;;;;25.82;34.00;96169.38;5055524;28;20343;-72
2022/05/22 11:31:23;;;;;;;;;;;;;;;25.97;33.40;96167.28;5040729;28;20411;-71
2022/05/22 11:33:49;;;;;;;;;;;;;;;26.16;34.26;96166.88;5055279;28;19978;-71
2022/05/22 11:36:15;;;;;;;;;;;;;;;26.21;32.02;96170.16;5055495;28;20049;-72
2022/05/22 11:38:47;;;;;;;;;;;;;;;26.24;33.78;96174.88;5055438;28;19955;-73
2022/05/22 11:41:13;;;;;;;;;;;;;;;26.15;31.60;96170.69;5052617;28;19960;-72
2022/05/22 11:43:57;;;;;;;;;;;;;;;26.15;33.52;96181.44;5055381;28;19952;-72
2022/05/22 11:46:41;;;;;;;;;;;;;;;26.15;34.11;96184.13;5053150;28;19966;-72
2022/05/22 11:49:24;;;;;;;;;;;;;;;26.12;34.20;96185.53;5055269;28;20342;-73
2022/05/22 11:52:11;;;;;;;;;;;;;;;26.27;33.68;96176.94;5052539;28;19959;-73
2022/05/22 11:55:04;;;;;;;;;;;;;;;26.45;32.30;96169.53;5054642;28;19966;-73
2022/05/22 11:57:34;;;;;;;;;;;;;;;26.66;33.39;96177.63;5031402;28;19962;-73
2022/05/22 12:00:12;;;;;;;;;;;;;;;26.79;30.31;96169.63;5055271;28;19951;-73
2022/05/22 12:02:56;;;;;;;;;;;;;;;26.73;32.58;96169.81;5055275;28;20438;-73
2022/05/22 12:05:44;;;;;;;;;;;;;;;26.76;32.86;96176.44;5054988;28;19969;-73
2022/05/22 12:08:29;;;;;;;;;;;;;;;26.91;33.26;96166.97;5054790;28;19949;-73
2022/05/22 12:10:58;;;;;;;;;;;;;;;27.01;31.67;96163.09;5054657;28;20057;-73
2022/05/22 12:13:30;;;;;;;;;;;;;;;27.10;31.49;96148.44;5053845;28;19952;-72
2022/05/22 12:16:10;;;;;;;;;;;;;;;27.20;32.62;96154.53;5054695;28;20332;-73
2022/05/22 12:18:45;;;;;;;;;;;;;;;27.27;31.99;96144.03;5038963;28;19963;-73
2022/05/22 12:21:19;;;;;;;;;;;;;;;27.31;32.32;96147.63;5054530;28;19964;-73
2022/05/22 12:23:45;;;;;;;;;;;;;;;27.33;31.61;96134.63;5054857;28;19953;-74
2022/05/22 12:26:13;;;;;;;;;;;;;;;27.42;31.55;96121.03;5054674;28;19982;-73
2022/05/22 12:28:45;;;;;;;;;;;;;;;27.57;31.51;96125.75;5054408;28;20437;-72
2022/05/22 12:31:25;;;;;;;;;;;;;;;27.69;32.01;96115.00;5054366;28;20418;-71
2022/05/22 12:33:52;;;;;;;;;;;;;;;27.79;32.01;96115.69;5054684;28;19966;-71
2022/05/22 12:36:22;;;;;;;;;;;;;;;27.73;30.67;96107.81;5054511;28;19964;-72
2022/05/22 12:38:52;;;;;;;;;;;;;;;27.65;31.18;96113.31;5054259;28;19963;-71
2022/05/22 12:41:18;;;;;;;;;;;;;;;27.56;31.00;96110.75;5053812;28;19966;-72
2022/05/22 12:43:44;;;;;;;;;;;;;;;27.52;30.45;96107.91;5054243;28;19956;-72
2022/05/22 12:46:11;;;;;;;;;;;;;;;27.34;30.58;96109.28;5054038;28;19956;-71
2022/05/22 12:48:39;;;;;;;;;;;;;;;27.25;31.75;96116.66;5054096;28;19951;-72
2022/05/22 12:51:10;;;;;;;;;;;;;;;27.16;31.20;96113.25;5054110;28;19960;-72
2022/05/22 12:53:38;;;;;;;;;;;;;;;26.99;30.61;96098.06;5054213;28;19960;-72
2022/05/22 12:56:16;;;;;;;;;;;;;;;26.91;31.96;96105.09;5036060;28;19967;-71
2022/05/22 12:58:45;;;;;;;;;;;;;;;26.96;32.50;96110.25;5054008;28;19953;-72
2022/05/22 13:01:26;;;;;;;;;;;;;;;27.12;31.69;96102.34;5054140;28;19956;-72
2022/05/22 13:03:54;;;;;;;;;;;;;;;27.29;31.46;96096.78;5053889;28;19952;-72
2022/05/22 13:06:26;;;;;;;;;;;;;;;27.44;31.71;96097.25;5053957;28;19979;-72
2022/05/22 13:09:18;;;;;;;;;;;;;;;27.56;30.28;96091.09;5053905;28;19959;-72
2022/05/22 13:11:50;;;;;;;;;;;;;;;27.35;28.60;96075.81;5030094;28;19963;-72
2022/05/22 13:14:27;;;;;;;;;;;;;;;27.31;30.84;96072.22;5053736;28;19956;-71